sensor_id;sensor_type;location;lat;lon;timestamp;temperature;humidity
1546;DHT22;766;51.502;9.752;2023-11-21T00:01:22;4.50;99.90
1546;DHT22;766;51.502;9.752;2023-11-21T00:03:52;4.60;99.90
1546;DHT22;766;51.502;9.752;2023-11-21T00:06:21;4.70;99.90
1546;DHT22;766;51.502;9.752;2023-11-21T00:08:50;4.70;99.90
1546;DHT22;766;51.502;9.752;2023-11-21T00:11:18;4.80;99.90
1546;DHT22;766;51.502;9.752;2023-11-21T00:13:46;4.80;99.90
1546;DHT22;766;51.502;9.752;2023-11-21T00:16:17;4.70;99.90
1546;DHT22;766;51.502;9.752;2023-11-21T00:18:45;4.70;99.90
1546;DHT22;766;51.502;9.752;2023-11-21T00:21:15;4.80;99.90
1546;DHT22;766;51.502;9.752;2023-11-21T00:23:44;4.70;99.90
1546;DHT22;766;51.502;9.752;2023-11-21T00:26:12;4.50;99.90
1546;DHT22;766;51.502;9.752;2023-11-21T00:28:41;4.50;99.90
1546;DHT22;766;51.502;9.752;2023-11-21T00:31:09;4.50;99.90
1546;DHT22;766;51.502;9.752;2023-11-21T00:33:37;4.30;99.90
1546;DHT22;766;51.502;9.752;2023-11-21T00:36:06;4.20;99.90
1546;DHT22;766;51.502;9.752;2023-11-21T00:38:37;4.20;99.90
1546;DHT22;766;51.502;9.752;2023-11-21T00:41:08;4.20;99.90
1546;DHT22;766;51.502;9.752;2023-11-21T00:43:36;4.30;99.90
1546;DHT22;766;51.502;9.752;2023-11-21T00:46:05;4.30;99.90
1546;DHT22;766;51.502;9.752;2023-11-21T00:48:34;4.20;99.90
1546;DHT22;766;51.502;9.752;2023-11-21T00:51:02;4.30;99.90
1546;DHT22;766;51.502;9.752;2023-11-21T00:53:30;4.40;99.90
1546;DHT22;766;51.502;9.752;2023-11-21T00:56:00;4.40;99.90
1546;DHT22;766;51.502;9.752;2023-11-21T00:58:29;4.40;99.90
1546;DHT22;766;51.502;9.752;2023-11-21T01:00:58;4.40;99.90
1546;DHT22;766;51.502;9.752;2023-11-21T01:03:26;4.40;99.90
1546;DHT22;766;51.502;9.752;2023-11-21T01:05:54;4.40;99.90
1546;DHT22;766;51.502;9.752;2023-11-21T01:08:22;4.50;99.90
1546;DHT22;766;51.502;9.752;2023-11-21T01:10:51;4.50;99.90
1546;DHT22;766;51.502;9.752;2023-11-21T01:13:21;4.60;99.90
1546;DHT22;766;51.502;9.752;2023-11-21T01:15:49;4.70;99.90
1546;DHT22;766;51.502;9.752;2023-11-21T01:18:17;4.60;99.90
1546;DHT22;766;51.502;9.752;2023-11-21T01:20:45;4.50;99.90
1546;DHT22;766;51.502;9.752;2023-11-21T01:23:14;4.50;99.90
1546;DHT22;766;51.502;9.752;2023-11-21T01:25:42;4.40;99.90
1546;DHT22;766;51.502;9.752;2023-11-21T01:28:10;4.30;99.90
1546;DHT22;766;51.502;9.752;2023-11-21T01:30:40;4.30;99.90
1546;DHT22;766;51.502;9.752;2023-11-21T01:33:08;4.20;99.90
1546;DHT22;766;51.502;9.752;2023-11-21T01:35:37;4.10;99.90
1546;DHT22;766;51.502;9.752;2023-11-21T01:38:05;4.20;99.90
1546;DHT22;766;51.502;9.752;2023-11-21T01:40:35;4.20;99.90
1546;DHT22;766;51.502;9.752;2023-11-21T01:43:03;4.10;99.90
1546;DHT22;766;51.502;9.752;2023-11-21T01:45:31;4.10;99.90
1546;DHT22;766;51.502;9.752;2023-11-21T01:48:02;4.10;99.90
1546;DHT22;766;51.502;9.752;2023-11-21T01:50:33;4.20;99.90
1546;DHT22;766;51.502;9.752;2023-11-21T01:53:02;4.30;99.90
1546;DHT22;766;51.502;9.752;2023-11-21T01:55:30;4.40;99.90
1546;DHT22;766;51.502;9.752;2023-11-21T01:58:00;4.50;99.90
1546;DHT22;766;51.502;9.752;2023-11-21T02:00:30;4.50;99.90
1546;DHT22;766;51.502;9.752;2023-11-21T02:02:58;4.50;99.90
1546;DHT22;766;51.502;9.752;2023-11-21T02:05:28;4.60;99.90
1546;DHT22;766;51.502;9.752;2023-11-21T02:07:57;4.60;99.90
1546;DHT22;766;51.502;9.752;2023-11-21T02:10:25;4.60;99.90
1546;DHT22;766;51.502;9.752;2023-11-21T02:12:53;4.70;99.90
1546;DHT22;766;51.502;9.752;2023-11-21T02:15:23;4.60;99.90
1546;DHT22;766;51.502;9.752;2023-11-21T02:17:54;4.60;99.90
1546;DHT22;766;51.502;9.752;2023-11-21T02:20:23;4.70;99.90
1546;DHT22;766;51.502;9.752;2023-11-21T02:22:54;4.80;99.90
1546;DHT22;766;51.502;9.752;2023-11-21T02:25:26;4.80;99.90
1546;DHT22;766;51.502;9.752;2023-11-21T02:27:56;4.70;99.90
1546;DHT22;766;51.502;9.752;2023-11-21T02:30:24;4.80;99.90
1546;DHT22;766;51.502;9.752;2023-11-21T02:32:55;4.80;99.90
1546;DHT22;766;51.502;9.752;2023-11-21T02:35:24;4.90;99.90
1546;DHT22;766;51.502;9.752;2023-11-21T02:37:54;5.00;99.90
1546;DHT22;766;51.502;9.752;2023-11-21T02:40:22;5.00;99.90
1546;DHT22;766;51.502;9.752;2023-11-21T02:42:52;5.00;99.90
1546;DHT22;766;51.502;9.752;2023-11-21T02:45:21;5.00;99.90
1546;DHT22;766;51.502;9.752;2023-11-21T02:47:49;5.00;99.90
1546;DHT22;766;51.502;9.752;2023-11-21T02:50:17;5.00;99.90
1546;DHT22;766;51.502;9.752;2023-11-21T02:52:47;5.10;99.90
1546;DHT22;766;51.502;9.752;2023-11-21T02:55:17;5.00;99.90
1546;DHT22;766;51.502;9.752;2023-11-21T02:57:45;5.00;99.90
1546;DHT22;766;51.502;9.752;2023-11-21T03:00:14;5.00;99.90
1546;DHT22;766;51.502;9.752;2023-11-21T03:02:45;4.90;99.90
1546;DHT22;766;51.502;9.752;2023-11-21T03:05:14;4.90;99.90
1546;DHT22;766;51.502;9.752;2023-11-21T03:07:42;4.80;99.90
1546;DHT22;766;51.502;9.752;2023-11-21T03:10:11;4.80;99.90
1546;DHT22;766;51.502;9.752;2023-11-21T03:12:40;4.80;99.90
1546;DHT22;766;51.502;9.752;2023-11-21T03:15:09;4.80;99.90
1546;DHT22;766;51.502;9.752;2023-11-21T03:17:37;4.70;99.90
1546;DHT22;766;51.502;9.752;2023-11-21T03:20:07;4.70;99.90
1546;DHT22;766;51.502;9.752;2023-11-21T03:22:38;4.80;99.90
1546;DHT22;766;51.502;9.752;2023-11-21T03:25:07;4.70;99.90
1546;DHT22;766;51.502;9.752;2023-11-21T03:27:40;4.70;99.90
1546;DHT22;766;51.502;9.752;2023-11-21T03:30:09;4.70;99.90
1546;DHT22;766;51.502;9.752;2023-11-21T03:32:39;4.60;99.90
1546;DHT22;766;51.502;9.752;2023-11-21T03:35:07;4.60;99.90
1546;DHT22;766;51.502;9.752;2023-11-21T03:37:36;4.60;99.90
1546;DHT22;766;51.502;9.752;2023-11-21T03:40:06;4.60;99.90
1546;DHT22;766;51.502;9.752;2023-11-21T03:42:35;4.70;99.90
1546;DHT22;766;51.502;9.752;2023-11-21T03:45:06;4.70;99.90
1546;DHT22;766;51.502;9.752;2023-11-21T03:47:35;4.80;99.90
1546;DHT22;766;51.502;9.752;2023-11-21T03:50:04;4.80;99.90
1546;DHT22;766;51.502;9.752;2023-11-21T03:52:33;4.70;99.90
1546;DHT22;766;51.502;9.752;2023-11-21T03:55:02;4.60;99.90
1546;DHT22;766;51.502;9.752;2023-11-21T03:57:30;4.60;99.90
1546;DHT22;766;51.502;9.752;2023-11-21T03:59:58;4.70;99.90
1546;DHT22;766;51.502;9.752;2023-11-21T04:02:28;4.80;99.90
1546;DHT22;766;51.502;9.752;2023-11-21T04:04:58;4.90;99.90
1546;DHT22;766;51.502;9.752;2023-11-21T04:07:26;5.00;99.90
1546;DHT22;766;51.502;9.752;2023-11-21T04:09:55;4.90;99.90
1546;DHT22;766;51.502;9.752;2023-11-21T04:12:23;4.90;99.90
1546;DHT22;766;51.502;9.752;2023-11-21T04:14:52;5.00;99.90
1546;DHT22;766;51.502;9.752;2023-11-21T04:17:22;4.90;99.90
1546;DHT22;766;51.502;9.752;2023-11-21T04:19:51;5.00;99.90
1546;DHT22;766;51.502;9.752;2023-11-21T04:22:19;5.00;99.90
1546;DHT22;766;51.502;9.752;2023-11-21T04:24:48;5.00;99.90
1546;DHT22;766;51.502;9.752;2023-11-21T04:27:17;5.10;99.90
1546;DHT22;766;51.502;9.752;2023-11-21T04:29:45;5.10;99.90
1546;DHT22;766;51.502;9.752;2023-11-21T04:32:16;5.10;99.90
1546;DHT22;766;51.502;9.752;2023-11-21T04:34:45;5.20;99.90
1546;DHT22;766;51.502;9.752;2023-11-21T04:37:14;5.20;99.90
1546;DHT22;766;51.502;9.752;2023-11-21T04:39:42;5.30;99.90
1546;DHT22;766;51.502;9.752;2023-11-21T04:42:11;5.30;99.90
1546;DHT22;766;51.502;9.752;2023-11-21T04:44:39;5.20;99.90
1546;DHT22;766;51.502;9.752;2023-11-21T04:47:08;5.30;99.90
1546;DHT22;766;51.502;9.752;2023-11-21T04:49:36;5.30;99.90
1546;DHT22;766;51.502;9.752;2023-11-21T04:52:04;5.30;99.90
1546;DHT22;766;51.502;9.752;2023-11-21T04:54:35;5.30;99.90
1546;DHT22;766;51.502;9.752;2023-11-21T04:57:04;5.30;99.90
1546;DHT22;766;51.502;9.752;2023-11-21T04:59:34;5.40;99.90
1546;DHT22;766;51.502;9.752;2023-11-21T05:02:02;5.40;99.90
1546;DHT22;766;51.502;9.752;2023-11-21T05:04:32;5.40;99.90
1546;DHT22;766;51.502;9.752;2023-11-21T05:07:00;5.40;99.90
1546;DHT22;766;51.502;9.752;2023-11-21T05:09:28;5.40;99.90
1546;DHT22;766;51.502;9.752;2023-11-21T05:12:00;5.50;99.90
1546;DHT22;766;51.502;9.752;2023-11-21T05:14:29;5.50;99.90
1546;DHT22;766;51.502;9.752;2023-11-21T05:16:57;5.50;99.90
1546;DHT22;766;51.502;9.752;2023-11-21T05:19:26;5.50;99.90
1546;DHT22;766;51.502;9.752;2023-11-21T05:21:54;5.50;99.90
1546;DHT22;766;51.502;9.752;2023-11-21T05:24:22;5.60;99.90
1546;DHT22;766;51.502;9.752;2023-11-21T05:26:50;5.60;99.90
1546;DHT22;766;51.502;9.752;2023-11-21T05:29:21;5.60;99.90
1546;DHT22;766;51.502;9.752;2023-11-21T05:31:49;5.60;99.90
1546;DHT22;766;51.502;9.752;2023-11-21T05:34:18;5.60;99.90
1546;DHT22;766;51.502;9.752;2023-11-21T05:36:47;5.60;99.90
1546;DHT22;766;51.502;9.752;2023-11-21T05:39:15;5.60;99.90
1546;DHT22;766;51.502;9.752;2023-11-21T05:41:44;5.70;99.90
1546;DHT22;766;51.502;9.752;2023-11-21T05:44:16;5.70;99.90
1546;DHT22;766;51.502;9.752;2023-11-21T05:46:46;5.70;99.90
1546;DHT22;766;51.502;9.752;2023-11-21T05:49:14;5.70;99.90
1546;DHT22;766;51.502;9.752;2023-11-21T05:51:46;5.70;99.90
1546;DHT22;766;51.502;9.752;2023-11-21T05:54:14;5.70;99.90
1546;DHT22;766;51.502;9.752;2023-11-21T05:56:43;5.70;99.90
1546;DHT22;766;51.502;9.752;2023-11-21T05:59:11;5.70;99.90
1546;DHT22;766;51.502;9.752;2023-11-21T06:01:40;5.70;99.90
1546;DHT22;766;51.502;9.752;2023-11-21T06:04:10;5.70;99.90
1546;DHT22;766;51.502;9.752;2023-11-21T06:06:38;5.70;99.90
1546;DHT22;766;51.502;9.752;2023-11-21T06:09:06;5.70;99.90
1546;DHT22;766;51.502;9.752;2023-11-21T06:11:36;5.70;99.90
1546;DHT22;766;51.502;9.752;2023-11-21T06:14:04;5.80;99.90
1546;DHT22;766;51.502;9.752;2023-11-21T06:16:34;5.80;99.90
1546;DHT22;766;51.502;9.752;2023-11-21T06:19:03;5.80;99.90
1546;DHT22;766;51.502;9.752;2023-11-21T06:21:33;5.80;99.90
1546;DHT22;766;51.502;9.752;2023-11-21T06:24:02;5.80;99.90
1546;DHT22;766;51.502;9.752;2023-11-21T06:26:30;5.80;99.90
1546;DHT22;766;51.502;9.752;2023-11-21T06:29:00;5.80;99.90
1546;DHT22;766;51.502;9.752;2023-11-21T06:31:29;5.80;99.90
1546;DHT22;766;51.502;9.752;2023-11-21T06:33:59;5.90;99.90
1546;DHT22;766;51.502;9.752;2023-11-21T06:36:28;5.90;99.90
1546;DHT22;766;51.502;9.752;2023-11-21T06:38:57;5.80;99.90
1546;DHT22;766;51.502;9.752;2023-11-21T06:41:26;5.80;99.90
1546;DHT22;766;51.502;9.752;2023-11-21T06:43:54;5.80;99.90
1546;DHT22;766;51.502;9.752;2023-11-21T06:46:22;5.80;99.90
1546;DHT22;766;51.502;9.752;2023-11-21T06:48:52;5.80;99.90
1546;DHT22;766;51.502;9.752;2023-11-21T06:51:20;5.80;99.90
1546;DHT22;766;51.502;9.752;2023-11-21T06:53:48;5.90;99.90
1546;DHT22;766;51.502;9.752;2023-11-21T06:56:18;5.90;99.90
1546;DHT22;766;51.502;9.752;2023-11-21T06:58:48;5.90;99.90
1546;DHT22;766;51.502;9.752;2023-11-21T07:01:16;5.90;99.90
1546;DHT22;766;51.502;9.752;2023-11-21T07:03:45;5.90;99.90
1546;DHT22;766;51.502;9.752;2023-11-21T07:06:16;6.00;99.90
1546;DHT22;766;51.502;9.752;2023-11-21T07:08:45;6.00;99.90
1546;DHT22;766;51.502;9.752;2023-11-21T07:11:14;6.00;99.90
1546;DHT22;766;51.502;9.752;2023-11-21T07:13:43;5.90;99.90
1546;DHT22;766;51.502;9.752;2023-11-21T07:16:12;6.00;99.90
1546;DHT22;766;51.502;9.752;2023-11-21T07:18:45;6.00;99.90
1546;DHT22;766;51.502;9.752;2023-11-21T07:21:13;6.00;99.90
1546;DHT22;766;51.502;9.752;2023-11-21T07:23:42;6.00;99.90
1546;DHT22;766;51.502;9.752;2023-11-21T07:26:10;6.00;99.90
1546;DHT22;766;51.502;9.752;2023-11-21T07:28:39;5.90;99.90
1546;DHT22;766;51.502;9.752;2023-11-21T07:31:09;5.90;99.90
1546;DHT22;766;51.502;9.752;2023-11-21T07:33:37;5.90;99.90
1546;DHT22;766;51.502;9.752;2023-11-21T07:36:07;5.90;99.90
1546;DHT22;766;51.502;9.752;2023-11-21T07:38:35;5.90;99.90
1546;DHT22;766;51.502;9.752;2023-11-21T07:41:03;6.00;99.90
1546;DHT22;766;51.502;9.752;2023-11-21T07:43:42;6.00;99.90
1546;DHT22;766;51.502;9.752;2023-11-21T07:46:12;6.00;99.90
1546;DHT22;766;51.502;9.752;2023-11-21T07:48:42;6.00;99.90
1546;DHT22;766;51.502;9.752;2023-11-21T07:51:10;6.00;99.90
1546;DHT22;766;51.502;9.752;2023-11-21T07:53:40;6.00;99.90
1546;DHT22;766;51.502;9.752;2023-11-21T07:56:09;6.00;99.90
1546;DHT22;766;51.502;9.752;2023-11-21T07:58:37;6.10;99.90
1546;DHT22;766;51.502;9.752;2023-11-21T08:01:05;6.10;99.90
1546;DHT22;766;51.502;9.752;2023-11-21T08:03:36;6.10;99.90
1546;DHT22;766;51.502;9.752;2023-11-21T08:06:05;6.10;99.90
1546;DHT22;766;51.502;9.752;2023-11-21T08:08:33;6.10;99.90
1546;DHT22;766;51.502;9.752;2023-11-21T08:11:02;6.10;99.90
1546;DHT22;766;51.502;9.752;2023-11-21T08:13:30;6.10;99.90
1546;DHT22;766;51.502;9.752;2023-11-21T08:15:59;6.10;99.90
1546;DHT22;766;51.502;9.752;2023-11-21T08:18:30;6.10;99.90
1546;DHT22;766;51.502;9.752;2023-11-21T08:20:59;6.20;99.90
1546;DHT22;766;51.502;9.752;2023-11-21T08:23:27;6.20;99.90
1546;DHT22;766;51.502;9.752;2023-11-21T08:25:56;6.20;99.90
1546;DHT22;766;51.502;9.752;2023-11-21T08:28:25;6.20;99.90
1546;DHT22;766;51.502;9.752;2023-11-21T08:30:53;6.20;99.90
1546;DHT22;766;51.502;9.752;2023-11-21T08:33:22;6.20;99.90
1546;DHT22;766;51.502;9.752;2023-11-21T08:35:50;6.20;99.90
1546;DHT22;766;51.502;9.752;2023-11-21T08:38:20;6.20;99.90
1546;DHT22;766;51.502;9.752;2023-11-21T08:40:48;6.20;99.90
1546;DHT22;766;51.502;9.752;2023-11-21T08:43:16;6.20;99.90
1546;DHT22;766;51.502;9.752;2023-11-21T08:45:47;6.20;99.90
1546;DHT22;766;51.502;9.752;2023-11-21T08:48:15;6.30;99.90
1546;DHT22;766;51.502;9.752;2023-11-21T08:50:43;6.30;99.90
1546;DHT22;766;51.502;9.752;2023-11-21T08:53:12;6.30;99.90
1546;DHT22;766;51.502;9.752;2023-11-21T08:55:41;6.30;99.90
1546;DHT22;766;51.502;9.752;2023-11-21T08:58:11;6.20;99.90
1546;DHT22;766;51.502;9.752;2023-11-21T09:00:40;6.30;99.90
1546;DHT22;766;51.502;9.752;2023-11-21T09:03:08;6.30;99.90
1546;DHT22;766;51.502;9.752;2023-11-21T09:05:38;6.30;99.90
1546;DHT22;766;51.502;9.752;2023-11-21T09:08:07;6.30;99.90
1546;DHT22;766;51.502;9.752;2023-11-21T09:10:35;6.30;99.90
1546;DHT22;766;51.502;9.752;2023-11-21T09:13:05;6.30;99.90
1546;DHT22;766;51.502;9.752;2023-11-21T09:15:36;6.30;99.90
1546;DHT22;766;51.502;9.752;2023-11-21T09:18:04;6.30;99.90
1546;DHT22;766;51.502;9.752;2023-11-21T09:20:33;6.30;99.90
1546;DHT22;766;51.502;9.752;2023-11-21T09:23:01;6.40;99.90
1546;DHT22;766;51.502;9.752;2023-11-21T09:25:29;6.40;99.90
1546;DHT22;766;51.502;9.752;2023-11-21T09:27:57;6.40;99.90
1546;DHT22;766;51.502;9.752;2023-11-21T09:30:28;6.40;99.90
1546;DHT22;766;51.502;9.752;2023-11-21T09:32:57;6.40;99.90
1546;DHT22;766;51.502;9.752;2023-11-21T09:35:27;6.40;99.90
1546;DHT22;766;51.502;9.752;2023-11-21T09:37:55;6.50;99.90
1546;DHT22;766;51.502;9.752;2023-11-21T09:40:24;6.50;99.90
1546;DHT22;766;51.502;9.752;2023-11-21T09:42:55;6.50;99.90
1546;DHT22;766;51.502;9.752;2023-11-21T09:45:31;6.60;99.90
1546;DHT22;766;51.502;9.752;2023-11-21T09:48:01;6.70;99.90
1546;DHT22;766;51.502;9.752;2023-11-21T09:50:30;6.70;99.90
1546;DHT22;766;51.502;9.752;2023-11-21T09:53:08;6.80;99.90
1546;DHT22;766;51.502;9.752;2023-11-21T09:55:43;6.70;99.90
1546;DHT22;766;51.502;9.752;2023-11-21T09:58:12;6.70;99.90
1546;DHT22;766;51.502;9.752;2023-11-21T10:00:43;6.70;99.90
1546;DHT22;766;51.502;9.752;2023-11-21T10:03:13;6.70;99.90
1546;DHT22;766;51.502;9.752;2023-11-21T10:05:43;6.80;99.90
1546;DHT22;766;51.502;9.752;2023-11-21T10:08:13;6.70;99.90
1546;DHT22;766;51.502;9.752;2023-11-21T10:10:43;6.70;99.90
1546;DHT22;766;51.502;9.752;2023-11-21T10:13:13;6.70;99.90
1546;DHT22;766;51.502;9.752;2023-11-21T10:15:49;6.80;99.90
1546;DHT22;766;51.502;9.752;2023-11-21T10:18:18;6.80;99.90
1546;DHT22;766;51.502;9.752;2023-11-21T10:20:46;6.80;99.90
1546;DHT22;766;51.502;9.752;2023-11-21T10:23:20;6.80;99.90
1546;DHT22;766;51.502;9.752;2023-11-21T10:25:50;6.80;99.90
1546;DHT22;766;51.502;9.752;2023-11-21T10:28:19;6.80;99.90
1546;DHT22;766;51.502;9.752;2023-11-21T10:30:50;6.80;99.90
1546;DHT22;766;51.502;9.752;2023-11-21T10:33:27;6.80;99.90
1546;DHT22;766;51.502;9.752;2023-11-21T10:35:56;6.80;99.90
1546;DHT22;766;51.502;9.752;2023-11-21T10:38:24;6.80;99.90
1546;DHT22;766;51.502;9.752;2023-11-21T10:40:54;6.90;99.90
1546;DHT22;766;51.502;9.752;2023-11-21T10:43:25;6.90;99.90
1546;DHT22;766;51.502;9.752;2023-11-21T10:45:57;6.90;99.90
1546;DHT22;766;51.502;9.752;2023-11-21T10:48:26;6.90;99.90
1546;DHT22;766;51.502;9.752;2023-11-21T10:50:54;6.90;99.90
1546;DHT22;766;51.502;9.752;2023-11-21T10:53:23;6.90;99.90
1546;DHT22;766;51.502;9.752;2023-11-21T10:56:01;6.90;99.90
1546;DHT22;766;51.502;9.752;2023-11-21T10:58:31;7.00;99.90
1546;DHT22;766;51.502;9.752;2023-11-21T11:01:02;6.90;99.90
1546;DHT22;766;51.502;9.752;2023-11-21T11:03:33;6.90;99.90
1546;DHT22;766;51.502;9.752;2023-11-21T11:06:05;6.90;99.90
1546;DHT22;766;51.502;9.752;2023-11-21T11:08:38;6.90;99.90
1546;DHT22;766;51.502;9.752;2023-11-21T11:11:07;7.00;99.90
1546;DHT22;766;51.502;9.752;2023-11-21T11:13:37;7.00;99.90
1546;DHT22;766;51.502;9.752;2023-11-21T11:16:08;7.00;99.90
1546;DHT22;766;51.502;9.752;2023-11-21T11:18:37;7.00;99.90
1546;DHT22;766;51.502;9.752;2023-11-21T11:21:11;7.00;99.90
1546;DHT22;766;51.502;9.752;2023-11-21T11:23:51;7.10;99.90
1546;DHT22;766;51.502;9.752;2023-11-21T11:26:29;7.10;99.90
1546;DHT22;766;51.502;9.752;2023-11-21T11:29:06;7.10;99.90
1546;DHT22;766;51.502;9.752;2023-11-21T11:31:50;7.10;99.90
1546;DHT22;766;51.502;9.752;2023-11-21T11:34:26;7.10;99.90
1546;DHT22;766;51.502;9.752;2023-11-21T11:37:01;7.10;99.90
1546;DHT22;766;51.502;9.752;2023-11-21T11:39:34;7.10;99.90
1546;DHT22;766;51.502;9.752;2023-11-21T11:42:05;7.20;99.90
1546;DHT22;766;51.502;9.752;2023-11-21T11:44:48;7.20;99.90
1546;DHT22;766;51.502;9.752;2023-11-21T11:47:27;7.20;99.90
1546;DHT22;766;51.502;9.752;2023-11-21T11:50:03;7.10;99.90
1546;DHT22;766;51.502;9.752;2023-11-21T11:52:38;7.10;99.90
1546;DHT22;766;51.502;9.752;2023-11-21T11:55:09;7.10;99.90
1546;DHT22;766;51.502;9.752;2023-11-21T11:57:42;7.10;99.90
1546;DHT22;766;51.502;9.752;2023-11-21T12:00:13;7.00;99.90
1546;DHT22;766;51.502;9.752;2023-11-21T12:02:47;7.00;99.90
1546;DHT22;766;51.502;9.752;2023-11-21T12:05:17;7.00;99.90
1546;DHT22;766;51.502;9.752;2023-11-21T12:07:47;7.00;99.90
1546;DHT22;766;51.502;9.752;2023-11-21T12:10:18;6.90;99.90
1546;DHT22;766;51.502;9.752;2023-11-21T12:12:47;6.90;99.90
1546;DHT22;766;51.502;9.752;2023-11-21T12:15:16;6.90;99.90
1546;DHT22;766;51.502;9.752;2023-11-21T12:17:47;6.80;99.90
1546;DHT22;766;51.502;9.752;2023-11-21T12:20:19;6.80;99.90
1546;DHT22;766;51.502;9.752;2023-11-21T12:22:48;6.80;99.90
1546;DHT22;766;51.502;9.752;2023-11-21T12:25:18;6.70;99.90
1546;DHT22;766;51.502;9.752;2023-11-21T12:27:47;6.60;99.90
1546;DHT22;766;51.502;9.752;2023-11-21T12:30:18;6.70;99.90
1546;DHT22;766;51.502;9.752;2023-11-21T12:32:50;6.60;99.90
1546;DHT22;766;51.502;9.752;2023-11-21T12:35:21;6.50;99.90
1546;DHT22;766;51.502;9.752;2023-11-21T12:37:50;6.40;99.90
1546;DHT22;766;51.502;9.752;2023-11-21T12:40:19;6.40;99.90
1546;DHT22;766;51.502;9.752;2023-11-21T12:42:52;6.30;99.90
1546;DHT22;766;51.502;9.752;2023-11-21T12:45:21;6.30;99.90
1546;DHT22;766;51.502;9.752;2023-11-21T12:47:55;6.30;99.90
1546;DHT22;766;51.502;9.752;2023-11-21T12:50:28;6.20;99.90
1546;DHT22;766;51.502;9.752;2023-11-21T12:53:00;6.20;99.90
1546;DHT22;766;51.502;9.752;2023-11-21T12:55:30;6.20;99.90
1546;DHT22;766;51.502;9.752;2023-11-21T12:58:01;6.20;99.90
1546;DHT22;766;51.502;9.752;2023-11-21T13:00:38;6.20;99.90
1546;DHT22;766;51.502;9.752;2023-11-21T13:03:09;6.20;99.90
1546;DHT22;766;51.502;9.752;2023-11-21T13:05:40;6.20;99.90
1546;DHT22;766;51.502;9.752;2023-11-21T13:08:14;6.20;99.90
1546;DHT22;766;51.502;9.752;2023-11-21T13:10:49;6.20;99.90
1546;DHT22;766;51.502;9.752;2023-11-21T13:13:17;6.10;99.90
1546;DHT22;766;51.502;9.752;2023-11-21T13:15:51;6.20;99.90
1546;DHT22;766;51.502;9.752;2023-11-21T13:18:24;6.10;99.90
1546;DHT22;766;51.502;9.752;2023-11-21T13:20:54;6.10;99.90
1546;DHT22;766;51.502;9.752;2023-11-21T13:23:24;6.00;99.90
1546;DHT22;766;51.502;9.752;2023-11-21T13:25:54;6.00;99.90
1546;DHT22;766;51.502;9.752;2023-11-21T13:28:31;6.00;99.90
1546;DHT22;766;51.502;9.752;2023-11-21T13:31:01;6.00;99.90
1546;DHT22;766;51.502;9.752;2023-11-21T13:33:39;6.00;99.90
1546;DHT22;766;51.502;9.752;2023-11-21T13:36:10;6.00;99.90
1546;DHT22;766;51.502;9.752;2023-11-21T13:38:41;6.00;99.90
1546;DHT22;766;51.502;9.752;2023-11-21T13:41:11;6.00;99.90
1546;DHT22;766;51.502;9.752;2023-11-21T13:43:41;6.00;99.90
1546;DHT22;766;51.502;9.752;2023-11-21T13:46:15;5.90;99.90
1546;DHT22;766;51.502;9.752;2023-11-21T13:48:50;6.00;99.90
1546;DHT22;766;51.502;9.752;2023-11-21T13:51:23;6.00;99.90
1546;DHT22;766;51.502;9.752;2023-11-21T13:54:01;5.90;99.90
1546;DHT22;766;51.502;9.752;2023-11-21T13:56:29;5.90;99.90
1546;DHT22;766;51.502;9.752;2023-11-21T13:58:58;5.90;99.90
1546;DHT22;766;51.502;9.752;2023-11-21T14:01:36;5.90;99.90
1546;DHT22;766;51.502;9.752;2023-11-21T14:04:23;5.90;99.90
1546;DHT22;766;51.502;9.752;2023-11-21T14:07:20;5.90;99.90
1546;DHT22;766;51.502;9.752;2023-11-21T14:10:03;5.90;99.90
1546;DHT22;766;51.502;9.752;2023-11-21T14:12:32;5.80;99.90
1546;DHT22;766;51.502;9.752;2023-11-21T14:15:06;5.80;99.90
1546;DHT22;766;51.502;9.752;2023-11-21T14:17:37;5.90;99.90
1546;DHT22;766;51.502;9.752;2023-11-21T14:20:11;5.90;99.90
1546;DHT22;766;51.502;9.752;2023-11-21T14:22:43;5.80;99.90
1546;DHT22;766;51.502;9.752;2023-11-21T14:25:13;5.80;99.90
1546;DHT22;766;51.502;9.752;2023-11-21T14:27:42;5.80;99.90
1546;DHT22;766;51.502;9.752;2023-11-21T14:30:11;5.80;99.90
1546;DHT22;766;51.502;9.752;2023-11-21T14:32:40;5.80;99.90
1546;DHT22;766;51.502;9.752;2023-11-21T14:35:10;5.80;99.90
1546;DHT22;766;51.502;9.752;2023-11-21T14:37:39;5.70;99.90
1546;DHT22;766;51.502;9.752;2023-11-21T14:40:08;5.70;99.90
1546;DHT22;766;51.502;9.752;2023-11-21T14:42:36;5.70;99.90
1546;DHT22;766;51.502;9.752;2023-11-21T14:45:08;5.70;99.90
1546;DHT22;766;51.502;9.752;2023-11-21T14:47:39;5.60;99.90
1546;DHT22;766;51.502;9.752;2023-11-21T14:50:17;5.70;99.90
1546;DHT22;766;51.502;9.752;2023-11-21T14:53:08;5.70;99.90
1546;DHT22;766;51.502;9.752;2023-11-21T14:55:36;5.70;99.90
1546;DHT22;766;51.502;9.752;2023-11-21T14:58:19;5.70;99.90
1546;DHT22;766;51.502;9.752;2023-11-21T15:00:54;5.60;99.90
1546;DHT22;766;51.502;9.752;2023-11-21T15:03:25;5.60;99.90
1546;DHT22;766;51.502;9.752;2023-11-21T15:06:11;5.50;99.90
1546;DHT22;766;51.502;9.752;2023-11-21T15:08:54;5.50;99.90
1546;DHT22;766;51.502;9.752;2023-11-21T15:11:39;5.50;99.90
1546;DHT22;766;51.502;9.752;2023-11-21T15:14:08;5.50;99.90
1546;DHT22;766;51.502;9.752;2023-11-21T15:16:40;5.50;99.90
1546;DHT22;766;51.502;9.752;2023-11-21T15:19:12;5.50;99.90
1546;DHT22;766;51.502;9.752;2023-11-21T15:21:46;5.50;99.90
1546;DHT22;766;51.502;9.752;2023-11-21T15:24:15;5.50;99.90
1546;DHT22;766;51.502;9.752;2023-11-21T15:26:43;5.40;99.90
1546;DHT22;766;51.502;9.752;2023-11-21T15:29:11;5.40;99.90
1546;DHT22;766;51.502;9.752;2023-11-21T15:31:41;5.40;99.90
1546;DHT22;766;51.502;9.752;2023-11-21T15:34:15;5.30;99.90
1546;DHT22;766;51.502;9.752;2023-11-21T15:36:44;5.30;99.90
1546;DHT22;766;51.502;9.752;2023-11-21T15:39:13;5.30;99.90
1546;DHT22;766;51.502;9.752;2023-11-21T15:41:42;5.30;99.90
1546;DHT22;766;51.502;9.752;2023-11-21T15:44:11;5.30;99.90
1546;DHT22;766;51.502;9.752;2023-11-21T15:46:39;5.20;99.90
1546;DHT22;766;51.502;9.752;2023-11-21T15:49:10;5.20;99.90
1546;DHT22;766;51.502;9.752;2023-11-21T15:51:42;5.20;99.90
1546;DHT22;766;51.502;9.752;2023-11-21T15:54:13;5.20;99.90
1546;DHT22;766;51.502;9.752;2023-11-21T15:56:41;5.20;99.90
1546;DHT22;766;51.502;9.752;2023-11-21T15:59:11;5.20;99.90
1546;DHT22;766;51.502;9.752;2023-11-21T16:01:41;5.20;99.90
1546;DHT22;766;51.502;9.752;2023-11-21T16:04:11;5.20;99.90
1546;DHT22;766;51.502;9.752;2023-11-21T16:06:42;5.20;99.90
1546;DHT22;766;51.502;9.752;2023-11-21T16:09:12;5.20;99.90
1546;DHT22;766;51.502;9.752;2023-11-21T16:11:49;5.10;99.90
1546;DHT22;766;51.502;9.752;2023-11-21T16:14:20;5.20;99.90
1546;DHT22;766;51.502;9.752;2023-11-21T16:16:52;5.10;99.90
1546;DHT22;766;51.502;9.752;2023-11-21T16:19:21;5.10;99.90
1546;DHT22;766;51.502;9.752;2023-11-21T16:21:49;5.10;99.90
1546;DHT22;766;51.502;9.752;2023-11-21T16:24:19;5.10;99.90
1546;DHT22;766;51.502;9.752;2023-11-21T16:26:48;5.10;99.90
1546;DHT22;766;51.502;9.752;2023-11-21T16:29:16;5.10;99.90
1546;DHT22;766;51.502;9.752;2023-11-21T16:31:44;5.10;99.90
1546;DHT22;766;51.502;9.752;2023-11-21T16:34:14;5.10;99.90
1546;DHT22;766;51.502;9.752;2023-11-21T16:36:47;5.00;99.90
1546;DHT22;766;51.502;9.752;2023-11-21T16:39:16;5.00;99.90
1546;DHT22;766;51.502;9.752;2023-11-21T16:41:47;5.00;99.90
1546;DHT22;766;51.502;9.752;2023-11-21T16:44:17;5.00;99.90
1546;DHT22;766;51.502;9.752;2023-11-21T16:46:46;5.10;99.90
1546;DHT22;766;51.502;9.752;2023-11-21T16:49:17;5.00;99.90
1546;DHT22;766;51.502;9.752;2023-11-21T16:51:46;5.00;99.90
1546;DHT22;766;51.502;9.752;2023-11-21T16:54:14;5.00;99.90